Time;durP1;ratioP1;P1;durP2;ratioP2;P2;SDS_P1;SDS_P2;PMS_P1;PMS_P2;Temp;Humidity;BMP_temperature;BMP_pressure;BME280_temperature;BME280_humidity;BME280_pressure;Samples;Min_cycle;Max_cycle;Signal;HPM_P1;HPM_P2
2022/06/03 00:02:57;;;;;;;2.00;1.80;;;24.40;47.90;;;;;;5031260;28;20427;-88
2022/06/03 00:05:23;;;;;;;1.90;1.70;;;24.40;47.90;;;;;;5034817;28;20424;-88
2022/06/03 00:08:17;;;;;;;2.23;2.03;;;24.30;47.90;;;;;;5024531;28;20416;-88
2022/06/03 00:11:06;;;;;;;2.10;1.90;;;24.30;47.90;;;;;;5018813;28;20181;-88
2022/06/03 00:14:14;;;;;;;2.10;1.90;;;24.30;47.90;;;;;;5035356;28;20432;-88
2022/06/03 00:17:16;;;;;;;2.07;1.80;;;24.30;47.90;;;;;;5022669;28;20502;-88
2022/06/03 00:20:15;;;;;;;2.10;1.90;;;24.30;47.90;;;;;;5007835;28;20462;-88
2022/06/03 00:22:56;;;;;;;2.00;1.90;;;24.30;47.90;;;;;;5004821;28;20526;-88
2022/06/03 00:25:30;;;;;;;2.10;1.80;;;24.30;48.50;;;;;;5024615;28;20450;-89
2022/06/03 00:28:11;;;;;;;1.93;1.73;;;24.30;47.90;;;;;;5008967;28;20576;-88
2022/06/03 00:30:49;;;;;;;2.17;1.90;;;24.30;47.90;;;;;;5025577;28;20447;-88
2022/06/03 00:33:35;;;;;;;2.03;1.83;;;24.30;47.90;;;;;;5025652;28;20991;-88
2022/06/03 00:36:25;;;;;;;1.90;1.80;;;24.30;47.90;;;;;;5008321;28;20836;-88
2022/06/03 00:39:23;;;;;;;2.23;1.90;;;24.30;47.90;;;;;;5010850;28;20543;-88
2022/06/03 00:42:02;;;;;;;2.23;1.80;;;24.40;48.00;;;;;;5013129;28;21048;-88
2022/06/03 00:44:49;;;;;;;2.50;2.10;;;24.30;47.90;;;;;;5013066;28;20419;-88
2022/06/03 00:47:32;;;;;;;2.43;1.87;;;24.30;47.90;;;;;;5024930;28;20437;-88
2022/06/03 00:50:15;;;;;;;1.60;1.40;;;24.30;47.90;;;;;;5024528;28;20415;-88
2022/06/03 00:53:06;;;;;;;2.10;1.57;;;24.30;47.90;;;;;;5030320;28;20443;-88
2022/06/03 00:55:46;;;;;;;2.17;2.00;;;24.30;47.90;;;;;;5044207;28;20772;-88
2022/06/03 00:58:30;;;;;;;2.43;2.13;;;24.30;47.90;;;;;;5031085;28;20472;-88
2022/06/03 01:01:21;;;;;;;2.70;1.80;;;24.30;47.90;;;;;;5047449;28;20423;-88
2022/06/03 01:04:08;;;;;;;2.43;2.13;;;24.30;48.00;;;;;;5034653;28;20411;-88
2022/06/03 01:07:03;;;;;;;2.10;1.77;;;24.30;48.00;;;;;;5042469;28;20430;-87
2022/06/03 01:10:13;;;;;;;1.80;1.70;;;24.30;48.00;;;;;;5028219;28;20453;-88
2022/06/03 01:13:02;;;;;;;2.37;2.07;;;24.30;48.00;;;;;;5016476;28;20431;-88
2022/06/03 01:16:07;;;;;;;2.40;2.20;;;24.30;48.00;;;;;;5043298;28;20466;-88
2022/06/03 01:18:39;;;;;;;1.80;1.70;;;24.30;48.00;;;;;;5012763;28;20474;-88
2022/06/03 01:21:05;;;;;;;1.83;1.70;;;24.30;48.00;;;;;;5043720;28;20427;-88
2022/06/03 01:24:02;;;;;;;2.57;2.00;;;24.30;48.00;;;;;;5044090;28;20431;-88
2022/06/03 01:26:46;;;;;;;2.00;1.80;;;24.30;48.00;;;;;;5039449;28;20527;-89
2022/06/03 01:30:00;;;;;;;1.80;1.70;;;24.30;48.00;;;;;;5044054;28;20420;-88
2022/06/03 01:32:45;;;;;;;2.03;1.83;;;24.30;48.00;;;;;;4998161;28;20439;-88
2022/06/03 01:35:38;;;;;;;1.80;1.70;;;24.30;48.00;;;;;;5044412;28;20522;-88
2022/06/03 01:38:32;;;;;;;1.97;1.80;;;24.30;48.10;;;;;;5044835;28;20534;-89
2022/06/03 01:41:23;;;;;;;2.30;2.10;;;24.30;48.10;;;;;;5045262;28;20535;-89
2022/06/03 01:44:15;;;;;;;1.67;1.57;;;24.30;48.10;;;;;;5029792;28;20442;-88
2022/06/03 01:47:15;;;;;;;1.90;1.80;;;24.30;48.10;;;;;;5019652;28;20459;-88
2022/06/03 01:49:55;;;;;;;1.70;1.60;;;24.20;48.10;;;;;;5022480;28;20407;-88
2022/06/03 01:52:49;;;;;;;2.03;1.83;;;24.30;48.10;;;;;;5044597;28;20423;-88
2022/06/03 01:55:56;;;;;;;2.00;1.80;;;24.20;48.00;;;;;;5044464;28;20427;-88
2022/06/03 01:58:37;;;;;;;2.50;1.60;;;24.20;48.10;;;;;;5025756;28;20482;-88
2022/06/03 02:01:24;;;;;;;2.77;1.73;;;24.20;48.10;;;;;;5041312;28;20412;-88
2022/06/03 02:04:13;;;;;;;2.07;1.90;;;24.30;48.20;;;;;;5041916;28;20412;-89
2022/06/03 02:06:54;;;;;;;1.93;1.73;;;24.20;48.10;;;;;;5037623;28;20428;-88
2022/06/03 02:09:44;;;;;;;1.87;1.30;;;24.30;48.10;;;;;;5061144;28;20442;-88
2022/06/03 02:12:19;;;;;;;1.70;1.60;;;24.20;48.10;;;;;;5043267;28;20491;-88
2022/06/03 02:15:17;;;;;;;2.20;2.00;;;24.20;48.10;;;;;;5040798;28;20948;-88
2022/06/03 02:17:55;;;;;;;2.10;1.90;;;24.20;48.00;;;;;;5024745;28;20440;-87
2022/06/03 02:20:46;;;;;;;1.87;1.70;;;24.20;48.10;;;;;;5027127;28;20449;-88
2022/06/03 02:23:49;;;;;;;1.77;1.67;;;24.20;48.00;;;;;;5044323;28;20427;-88
2022/06/03 02:26:45;;;;;;;1.37;1.27;;;24.20;48.10;;;;;;5059900;28;20432;-88
2022/06/03 02:32:10;;;;;;;1.60;1.50;;;24.20;48.10;;;;;;5025833;28;20466;-87
2022/06/03 02:34:58;;;;;;;1.97;1.60;;;24.20;48.10;;;;;;5040753;28;20448;-87
2022/06/03 02:37:43;;;;;;;2.00;1.73;;;24.20;48.10;;;;;;5033439;28;20472;-87
2022/06/03 02:41:00;;;;;;;3.00;1.60;;;24.20;48.10;;;;;;5040296;28;20424;-87
2022/06/03 02:44:05;;;;;;;1.73;1.63;;;24.20;48.10;;;;;;5017299;28;20430;-87
2022/06/03 02:46:52;;;;;;;1.60;1.40;;;24.20;48.10;;;;;;4988591;28;20428;-87
2022/06/03 02:49:49;;;;;;;1.57;1.47;;;24.20;48.20;;;;;;5034312;28;20415;-87
2022/06/03 02:52:55;;;;;;;2.07;1.70;;;24.20;48.10;;;;;;5059946;28;20411;-88
2022/06/03 02:55:27;;;;;;;2.00;1.80;;;24.20;48.20;;;;;;5027010;28;20411;-87
2022/06/03 02:58:01;;;;;;;2.00;1.80;;;24.20;48.20;;;;;;5058855;28;20467;-87
2022/06/03 03:01:12;;;;;;;1.83;1.70;;;24.20;48.20;;;;;;5059189;28;20425;-88
2022/06/03 03:03:50;;;;;;;1.90;1.67;;;24.20;48.20;;;;;;5059792;28;20431;-86
2022/06/03 03:06:47;;;;;;;1.80;1.70;;;24.20;48.20;;;;;;5059096;28;20477;-87
2022/06/03 03:09:39;;;;;;;2.30;1.67;;;24.20;48.20;;;;;;5018326;28;20483;-87
2022/06/03 03:12:30;;;;;;;1.70;1.60;;;24.20;48.20;;;;;;5042634;28;20446;-86
2022/06/03 03:15:22;;;;;;;2.07;1.87;;;24.20;48.20;;;;;;5028425;28;20415;-88
2022/06/03 03:18:05;;;;;;;1.90;1.70;;;24.20;48.20;;;;;;5038834;28;20471;-89
2022/06/03 03:20:53;;;;;;;1.90;1.67;;;24.20;48.20;;;;;;5052358;28;20423;-88
2022/06/03 03:23:45;;;;;;;1.73;1.50;;;24.20;48.20;;;;;;5042806;28;20788;-88
2022/06/03 03:26:45;;;;;;;1.67;1.30;;;24.20;48.30;;;;;;5003698;28;20518;-88
2022/06/03 03:29:34;;;;;;;1.60;1.43;;;24.20;48.30;;;;;;5026396;28;20455;-88
2022/06/03 03:32:19;;;;;;;1.87;1.67;;;24.20;48.20;;;;;;5026969;28;20443;-88
2022/06/03 03:35:12;;;;;;;2.50;2.20;;;24.20;48.20;;;;;;5027560;28;20411;-86
2022/06/03 03:38:00;;;;;;;2.23;1.70;;;24.20;48.20;;;;;;5027860;28;20586;-87
2022/06/03 03:40:46;;;;;;;2.93;1.83;;;24.20;48.30;;;;;;5024607;28;20414;-87
2022/06/03 03:43:23;;;;;;;1.70;1.60;;;24.10;48.20;;;;;;5054610;28;20477;-86
2022/06/03 03:46:26;;;;;;;1.80;1.60;;;24.20;48.30;;;;;;5026935;28;20434;-86
2022/06/03 03:49:10;;;;;;;1.53;1.43;;;24.20;48.30;;;;;;5025535;28;20574;-87
2022/06/03 03:52:21;;;;;;;2.10;1.40;;;24.20;48.30;;;;;;5024977;28;20484;-87
2022/06/03 03:55:07;;;;;;;1.70;1.60;;;24.10;48.20;;;;;;4952874;29;20422;-86
2022/06/03 03:58:00;;;;;;;1.90;1.80;;;24.20;48.30;;;;;;4952277;29;21011;-89
2022/06/03 04:00:58;;;;;;;1.60;1.50;;;24.20;48.30;;;;;;4951345;29;20947;-88
2022/06/03 04:03:30;;;;;;;1.80;1.60;;;24.20;48.30;;;;;;4951317;29;20434;-89
2022/06/03 04:06:19;;;;;;;1.70;1.60;;;24.10;48.30;;;;;;4967340;29;20418;-88
2022/06/03 04:09:22;;;;;;;2.47;1.47;;;24.20;48.40;;;;;;4951999;29;20421;-89
2022/06/03 04:11:55;;;;;;;1.57;1.47;;;24.20;48.30;;;;;;4967567;29;20414;-88
2022/06/03 04:14:40;;;;;;;1.57;1.47;;;24.20;48.40;;;;;;4954132;29;20414;-88
2022/06/03 04:17:41;;;;;;;2.40;1.80;;;24.20;48.30;;;;;;4955287;29;20472;-88
2022/06/03 04:20:24;;;;;;;1.60;1.40;;;24.20;48.30;;;;;;4954907;29;20469;-89
2022/06/03 04:23:25;;;;;;;1.50;1.40;;;24.20;48.30;;;;;;4955323;29;20916;-89
2022/06/03 04:26:20;;;;;;;1.20;1.10;;;24.20;48.30;;;;;;4970674;29;20457;-87
2022/06/03 04:29:07;;;;;;;1.80;1.50;;;24.20;48.30;;;;;;4971533;29;20461;-88
2022/06/03 04:32:03;;;;;;;1.50;1.40;;;24.20;48.40;;;;;;4987939;28;20444;-89
2022/06/03 04:35:06;;;;;;;1.73;1.63;;;24.20;48.40;;;;;;5026698;28;20428;-88
2022/06/03 04:37:50;;;;;;;1.67;1.57;;;24.30;48.40;;;;;;5024628;28;20559;-89
2022/06/03 04:40:44;;;;;;;1.60;1.30;;;24.30;48.40;;;;;;5026333;28;20416;-89
2022/06/03 04:43:25;;;;;;;1.37;1.27;;;24.30;48.40;;;;;;5026255;28;20420;-89
2022/06/03 04:46:18;;;;;;;1.43;1.33;;;24.30;48.40;;;;;;5026590;28;20451;-89
2022/06/03 04:48:50;;;;;;;1.80;1.50;;;24.30;48.30;;;;;;5026358;28;20423;-89
2022/06/03 04:51:24;;;;;;;1.70;1.60;;;24.30;48.40;;;;;;5010991;28;20397;-88
2022/06/03 04:54:15;;;;;;;2.13;1.60;;;24.30;48.40;;;;;;5026454;28;20434;-88
2022/06/03 04:56:50;;;;;;;1.83;1.50;;;24.30;48.40;;;;;;5025714;28;20460;-88
2022/06/03 04:59:34;;;;;;;1.40;1.30;;;24.30;48.40;;;;;;5011008;28;20396;-89
2022/06/03 05:02:09;;;;;;;1.73;1.50;;;24.30;48.40;;;;;;5025982;28;20918;-88
2022/06/03 05:05:13;;;;;;;1.70;1.43;;;24.30;48.40;;;;;;5029069;28;20410;-88
2022/06/03 05:08:14;;;;;;;1.70;1.17;;;24.30;48.40;;;;;;5045111;28;20512;-89
2022/06/03 05:11:12;;;;;;;1.50;1.40;;;24.30;48.40;;;;;;5022112;28;20470;-89
2022/06/03 05:14:19;;;;;;;1.40;1.30;;;24.30;48.40;;;;;;5018076;28;20467;-89
2022/06/03 05:16:54;;;;;;;3.20;1.50;;;24.40;48.50;;;;;;5026275;28;20468;-88
2022/06/03 05:20:01;;;;;;;1.50;1.40;;;24.40;48.50;;;;;;5026669;28;20418;-88
2022/06/03 05:22:49;;;;;;;1.50;1.40;;;24.40;48.60;;;;;;5032936;28;20396;-88
2022/06/03 05:25:37;;;;;;;1.70;1.47;;;24.40;48.50;;;;;;5031974;28;20419;-88
2022/06/03 05:28:30;;;;;;;1.60;1.40;;;24.40;48.50;;;;;;5048669;28;20463;-89
2022/06/03 05:31:26;;;;;;;6.53;1.63;;;24.40;48.50;;;;;;5046386;28;20454;-86
2022/06/03 05:34:28;;;;;;;2.73;1.60;;;24.40;48.50;;;;;;5044104;28;20415;-86
2022/06/03 05:37:05;;;;;;;1.90;1.33;;;24.40;48.50;;;;;;5044558;28;20474;-86
2022/06/03 05:39:58;;;;;;;1.50;1.40;;;24.40;48.50;;;;;;5027403;28;20407;-86
2022/06/03 05:43:02;;;;;;;1.40;1.30;;;24.40;48.50;;;;;;5043390;28;20420;-86
2022/06/03 05:45:50;;;;;;;1.50;1.33;;;24.40;48.50;;;;;;5028256;28;20429;-86
2022/06/03 05:48:39;;;;;;;1.80;1.60;;;24.40;48.50;;;;;;5044426;28;20920;-86
2022/06/03 05:51:16;;;;;;;2.03;1.40;;;24.40;48.50;;;;;;5047146;28;20406;-86
2022/06/03 05:54:26;;;;;;;1.43;1.27;;;24.40;48.50;;;;;;5031439;28;20494;-88
2022/06/03 05:57:20;;;;;;;1.60;1.40;;;24.40;48.50;;;;;;5022881;28;20458;-88
2022/06/03 05:59:58;;;;;;;1.40;1.30;;;24.40;48.50;;;;;;5048251;28;20972;-88
2022/06/03 06:03:01;;;;;;;2.47;2.03;;;24.40;48.50;;;;;;5031341;28;20434;-88
2022/06/03 06:06:02;;;;;;;1.70;1.60;;;24.40;48.50;;;;;;5023456;28;20493;-88
2022/06/03 06:08:53;;;;;;;1.50;1.40;;;24.50;48.60;;;;;;5048718;28;20422;-88
2022/06/03 06:11:49;;;;;;;2.23;1.70;;;24.40;48.60;;;;;;5033305;28;20411;-86
2022/06/03 06:14:31;;;;;;;1.93;1.67;;;24.50;48.70;;;;;;5047911;28;20434;-87
2022/06/03 06:17:19;;;;;;;2.20;1.40;;;24.40;48.70;;;;;;5063340;28;20495;-87
2022/06/03 06:20:06;;;;;;;2.00;1.30;;;24.50;48.80;;;;;;5029079;28;20420;-87
2022/06/03 06:22:41;;;;;;;2.47;1.40;;;24.50;48.80;;;;;;5048198;28;20480;-86
2022/06/03 06:25:24;;;;;;;2.17;1.47;;;24.50;48.80;;;;;;5031324;28;20411;-86
2022/06/03 06:28:11;;;;;;;1.87;1.53;;;24.50;48.80;;;;;;5048220;28;20427;-86
2022/06/03 06:31:08;;;;;;;1.73;1.43;;;24.50;48.80;;;;;;5031754;28;20447;-86
2022/06/03 06:33:46;;;;;;;2.50;1.40;;;24.50;48.80;;;;;;5032442;28;20457;-86
2022/06/03 06:36:39;;;;;;;1.43;1.33;;;24.50;48.80;;;;;;5033422;28;20471;-86
2022/06/03 06:39:30;;;;;;;1.87;1.43;;;24.60;48.90;;;;;;5048161;28;20441;-86
2022/06/03 06:42:21;;;;;;;1.60;1.47;;;24.60;48.90;;;;;;5048145;28;20516;-86
2022/06/03 06:45:12;;;;;;;1.40;1.23;;;24.60;48.90;;;;;;5047860;28;20419;-85
2022/06/03 06:47:52;;;;;;;2.10;1.27;;;24.60;48.80;;;;;;5047748;28;20419;-85
2022/06/03 06:50:26;;;;;;;1.80;1.37;;;24.60;48.90;;;;;;5031772;28;20404;-86
2022/06/03 06:53:15;;;;;;;1.53;1.43;;;24.60;48.80;;;;;;5064704;28;20411;-86
2022/06/03 06:55:47;;;;;;;1.60;1.37;;;24.60;48.80;;;;;;5015888;28;20400;-86
2022/06/03 06:58:45;;;;;;;3.40;1.73;;;24.60;48.80;;;;;;5048460;28;20545;-86
2022/06/03 07:02:00;;;;;;;1.50;1.33;;;24.60;48.80;;;;;;5020325;28;20473;-85
2022/06/03 07:04:35;;;;;;;2.07;1.37;;;24.60;48.80;;;;;;4986877;28;20429;-85
2022/06/03 07:07:26;;;;;;;1.67;1.30;;;24.60;48.80;;;;;;4977017;28;20447;-85
2022/06/03 07:10:22;;;;;;;1.50;1.20;;;24.60;48.80;;;;;;4976988;28;20421;-85
2022/06/03 07:13:05;;;;;;;1.70;1.50;;;24.60;48.80;;;;;;4977348;28;20443;-85
2022/06/03 07:15:43;;;;;;;1.30;1.00;;;24.60;48.80;;;;;;4992482;28;20417;-85
2022/06/03 07:22:02;;;;;;;2.30;1.40;;;24.60;48.80;;;;;;4953457;29;20928;-86
2022/06/03 07:24:37;;;;;;;1.50;1.40;;;24.70;48.90;;;;;;4914727;29;20456;-86
2022/06/03 07:27:14;;;;;;;1.70;1.20;;;24.60;48.90;;;;;;4898697;29;20428;-86
2022/06/03 07:29:55;;;;;;;1.40;1.20;;;24.60;48.90;;;;;;4914280;29;20432;-86
2022/06/03 07:32:34;;;;;;;2.03;1.67;;;24.70;49.00;;;;;;4946538;29;20447;-86
2022/06/03 07:35:06;;;;;;;1.73;1.30;;;24.60;48.90;;;;;;4908688;29;20951;-86
2022/06/03 07:37:42;;;;;;;1.53;1.43;;;24.70;49.00;;;;;;4932269;29;20473;-86
2022/06/03 07:40:38;;;;;;;1.33;1.20;;;24.70;49.00;;;;;;4937522;29;20475;-86
2022/06/03 07:43:08;;;;;;;2.43;1.60;;;24.70;49.00;;;;;;4862165;29;20430;-87
2022/06/03 07:46:05;;;;;;;1.80;1.20;;;24.70;49.00;;;;;;4893213;29;20422;-86
2022/06/03 07:48:33;;;;;;;1.87;1.27;;;24.70;49.10;;;;;;4890678;29;20437;-86
2022/06/03 07:51:31;;;;;;;1.80;1.37;;;24.70;49.10;;;;;;4900077;29;20410;-85
2022/06/03 07:54:26;;;;;;;1.83;1.60;;;24.70;49.20;;;;;;4903150;29;20420;-85
2022/06/03 07:57:04;;;;;;;1.87;1.60;;;24.70;49.20;;;;;;4902188;29;20465;-85
2022/06/03 07:59:34;;;;;;;1.37;1.27;;;24.70;49.20;;;;;;4955635;29;20435;-85
2022/06/03 08:02:16;;;;;;;1.37;1.17;;;24.70;49.20;;;;;;4959328;29;20410;-85
2022/06/03 08:04:43;;;;;;;2.73;1.70;;;24.70;49.20;;;;;;4979752;29;20390;-85
2022/06/03 08:13:07;;;;;;;1.90;1.40;;;24.70;49.20;;;;;;4977441;29;20509;-85
2022/06/03 08:15:39;;;;;;;2.03;1.20;;;24.70;49.30;;;;;;4962805;29;20417;-84
2022/06/03 08:18:08;;;;;;;1.77;1.50;;;24.80;49.30;;;;;;4961833;29;20464;-86
2022/06/03 08:20:41;;;;;;;1.30;1.20;;;24.70;49.20;;;;;;5017569;28;20415;-86
2022/06/03 08:23:08;;;;;;;1.40;1.30;;;24.80;49.30;;;;;;5034263;28;20419;-85
2022/06/03 08:25:40;;;;;;;1.30;1.17;;;24.80;49.30;;;;;;5034882;28;20439;-86
2022/06/03 08:28:11;;;;;;;3.03;1.43;;;24.80;49.30;;;;;;5034963;28;20411;-87
2022/06/03 08:30:39;;;;;;;1.43;1.33;;;24.80;49.30;;;;;;5034877;28;20410;-85
2022/06/03 08:33:08;;;;;;;1.70;1.60;;;24.80;49.30;;;;;;5033721;28;20433;-87
2022/06/03 08:35:42;;;;;;;1.50;1.40;;;24.80;49.90;;;;;;5032845;28;20411;-86
2022/06/03 08:38:13;;;;;;;2.27;1.50;;;24.80;49.30;;;;;;5064683;28;20487;-86
2022/06/03 08:41:05;;;;;;;1.53;1.20;;;24.80;49.30;;;;;;5068252;28;20422;-85
2022/06/03 08:43:49;;;;;;;1.50;1.30;;;24.80;49.30;;;;;;5035908;28;20391;-86
2022/06/03 08:46:24;;;;;;;1.47;1.33;;;24.80;49.30;;;;;;5031144;28;20412;-86
2022/06/03 08:48:57;;;;;;;2.20;1.50;;;24.80;49.30;;;;;;5015615;28;20410;-85
2022/06/03 08:51:51;;;;;;;1.50;1.10;;;24.80;49.30;;;;;;5016223;28;20432;-85
2022/06/03 08:54:40;;;;;;;1.80;1.57;;;24.90;49.40;;;;;;5009550;28;20428;-85
2022/06/03 08:57:18;;;;;;;2.10;1.63;;;24.80;49.30;;;;;;4976067;29;20457;-85
2022/06/03 08:59:54;;;;;;;2.00;1.53;;;24.80;49.90;;;;;;4958711;29;20422;-85
2022/06/03 09:02:29;;;;;;;3.87;2.00;;;24.90;49.40;;;;;;4960220;29;20421;-85
2022/06/03 09:05:10;;;;;;;1.90;1.70;;;24.90;49.40;;;;;;4976333;29;20406;-85
2022/06/03 09:07:52;;;;;;;5.27;1.30;;;24.90;49.40;;;;;;4974278;29;20426;-85
2022/06/03 09:10:32;;;;;;;2.07;1.80;;;24.90;49.40;;;;;;4929515;29;20533;-85
2022/06/03 09:13:20;;;;;;;2.60;1.47;;;24.90;49.40;;;;;;4976347;29;20430;-86
2022/06/03 09:15:47;;;;;;;2.47;1.43;;;24.90;49.40;;;;;;4977280;28;20493;-85
2022/06/03 09:18:28;;;;;;;3.73;1.63;;;24.90;49.40;;;;;;4995494;28;20461;-85
2022/06/03 09:21:02;;;;;;;3.17;1.80;;;24.90;49.40;;;;;;4995412;28;20417;-85
2022/06/03 09:23:40;;;;;;;2.03;1.50;;;24.90;49.40;;;;;;4995036;28;20455;-85
2022/06/03 09:26:33;;;;;;;1.73;1.60;;;24.90;49.40;;;;;;4995175;28;20559;-85
2022/06/03 09:29:05;;;;;;;1.93;1.40;;;24.90;49.40;;;;;;4994019;28;20436;-85
2022/06/03 09:31:35;;;;;;;2.53;1.70;;;24.90;49.40;;;;;;4994221;28;20460;-86
2022/06/03 09:34:02;;;;;;;1.67;1.30;;;24.90;49.40;;;;;;5013979;28;20418;-86
2022/06/03 09:36:32;;;;;;;2.27;1.77;;;24.90;49.40;;;;;;5031642;28;20406;-86
2022/06/03 09:39:00;;;;;;;3.53;1.73;;;24.90;49.40;;;;;;5030590;28;20418;-86
2022/06/03 09:41:32;;;;;;;4.90;1.90;;;24.90;49.40;;;;;;5031716;28;20488;-86
2022/06/03 09:44:02;;;;;;;2.10;1.30;;;24.90;49.40;;;;;;5029977;28;20400;-86
2022/06/03 09:46:29;;;;;;;5.10;1.50;;;25.00;49.40;;;;;;5030007;28;20427;-86
2022/06/03 09:48:56;;;;;;;1.40;1.30;;;25.00;49.50;;;;;;5031070;28;20419;-86
2022/06/03 09:51:55;;;;;;;2.03;1.10;;;25.00;49.40;;;;;;5029882;28;20419;-86
2022/06/03 09:54:12;;;;;;;2.20;1.50;;;25.00;49.40;;;;;;5031533;28;20419;-86
2022/06/03 09:56:39;;;;;;;1.40;1.30;;;25.00;49.40;;;;;;5031397;28;20407;-86
2022/06/03 09:59:06;;;;;;;2.70;1.67;;;25.00;49.50;;;;;;5063632;28;20455;-86
2022/06/03 10:01:33;;;;;;;2.40;1.90;;;25.00;49.50;;;;;;5029710;28;20473;-85
2022/06/03 10:04:07;;;;;;;2.43;1.70;;;25.00;49.50;;;;;;5030083;28;20411;-86
2022/06/03 10:06:51;;;;;;;5.40;1.70;;;25.00;49.50;;;;;;5063156;28;20412;-86
2022/06/03 10:17:53;;;;;;;3.70;1.90;;;25.00;50.10;;;;;;5036298;28;20518;-87
2022/06/03 10:20:20;;;;;;;2.10;1.67;;;25.00;49.50;;;;;;5034531;28;20407;-86
2022/06/03 10:22:48;;;;;;;2.03;1.83;;;25.00;49.50;;;;;;5017484;28;20483;-86
2022/06/03 10:25:19;;;;;;;1.53;1.30;;;25.00;49.50;;;;;;5034379;28;20408;-86
2022/06/03 10:27:49;;;;;;;2.00;1.80;;;25.00;49.50;;;;;;5036349;28;20424;-86
2022/06/03 10:30:31;;;;;;;2.10;1.50;;;25.00;49.40;;;;;;5010444;28;20411;-86
2022/06/03 10:33:05;;;;;;;2.37;1.80;;;25.00;49.40;;;;;;5035687;28;20434;-87
2022/06/03 10:35:38;;;;;;;2.20;1.60;;;25.00;49.40;;;;;;5033920;28;20420;-86
2022/06/03 10:38:10;;;;;;;2.93;1.60;;;25.00;49.40;;;;;;5034169;28;20450;-87
2022/06/03 10:40:39;;;;;;;1.63;1.30;;;25.00;49.40;;;;;;5034018;28;20411;-87
2022/06/03 10:43:12;;;;;;;2.00;1.47;;;25.00;49.40;;;;;;5033718;28;20443;-88
2022/06/03 10:45:40;;;;;;;3.47;1.87;;;25.00;49.40;;;;;;5017886;28;20427;-87
2022/06/03 10:48:23;;;;;;;2.10;1.30;;;25.00;49.90;;;;;;5033308;28;20411;-87
2022/06/03 10:50:49;;;;;;;1.80;1.50;;;25.00;49.40;;;;;;5034304;28;20411;-87
2022/06/03 11:01:53;;;;;;;1.90;1.80;;;25.00;49.40;;;;;;5036474;28;20423;-86
2022/06/03 11:04:39;;;;;;;3.87;1.80;;;25.00;49.40;;;;;;5036104;28;20411;-86
2022/06/03 11:07:36;;;;;;;3.10;1.70;;;25.00;49.40;;;;;;5036289;28;20403;-86
2022/06/03 11:10:13;;;;;;;2.50;1.90;;;24.90;49.30;;;;;;5033706;28;20411;-86
2022/06/03 11:12:47;;;;;;;2.07;1.70;;;24.90;49.30;;;;;;5035826;28;20913;-85
2022/06/03 11:15:35;;;;;;;3.10;2.00;;;24.90;49.30;;;;;;5034642;28;20423;-86
2022/06/03 11:18:32;;;;;;;1.97;1.70;;;24.90;49.30;;;;;;5036772;28;20469;-86
2022/06/03 11:21:17;;;;;;;3.20;1.60;;;24.90;49.30;;;;;;5010988;28;20424;-86
2022/06/03 11:23:44;;;;;;;1.80;1.60;;;24.90;49.40;;;;;;5032956;28;20415;-86
2022/06/03 11:26:46;;;;;;;1.60;1.50;;;24.90;49.40;;;;;;5033911;28;20442;-86
2022/06/03 11:29:27;;;;;;;1.77;1.60;;;24.90;49.40;;;;;;5033678;28;20405;-88
2022/06/03 11:31:55;;;;;;;2.20;1.60;;;24.90;49.40;;;;;;5030924;28;20433;-86
2022/06/03 11:34:47;;;;;;;1.90;1.80;;;24.90;49.40;;;;;;5030253;28;20425;-86
2022/06/03 11:37:34;;;;;;;1.90;1.60;;;24.90;49.40;;;;;;5031267;28;20455;-87
2022/06/03 11:40:10;;;;;;;2.67;1.60;;;24.90;49.40;;;;;;5030822;28;20406;-87
2022/06/03 11:42:55;;;;;;;2.03;1.83;;;24.90;49.40;;;;;;5030846;28;20423;-86
2022/06/03 11:45:44;;;;;;;1.67;1.30;;;24.90;49.40;;;;;;5030984;28;20408;-86
2022/06/03 11:48:25;;;;;;;2.17;1.73;;;24.90;49.50;;;;;;5031813;28;20415;-86
2022/06/03 11:50:53;;;;;;;2.23;1.70;;;24.90;49.50;;;;;;5028337;28;20443;-86
2022/06/03 11:53:24;;;;;;;1.90;1.67;;;24.90;49.50;;;;;;5031410;28;20464;-86
2022/06/03 11:55:53;;;;;;;1.83;1.70;;;24.90;49.50;;;;;;5031005;28;20487;-86
2022/06/03 11:58:45;;;;;;;2.90;2.27;;;24.90;49.50;;;;;;5027550;28;20787;-86
2022/06/03 12:01:22;;;;;;;2.27;1.80;;;24.90;49.50;;;;;;5027202;28;20462;-86
2022/06/03 12:04:10;;;;;;;1.70;1.60;;;24.90;49.50;;;;;;5028641;28;20438;-85
2022/06/03 12:06:46;;;;;;;2.13;1.93;;;24.90;49.50;;;;;;5027370;28;20422;-86
2022/06/03 12:09:51;;;;;;;1.57;1.47;;;24.90;49.50;;;;;;5028149;28;20418;-86
2022/06/03 12:15:31;;;;;;;2.37;1.50;;;24.90;49.50;;;;;;4992515;28;20388;-86
2022/06/03 12:18:14;;;;;;;1.80;1.63;;;24.90;49.50;;;;;;4993332;28;20460;-85
2022/06/03 12:21:03;;;;;;;2.07;1.80;;;24.90;49.50;;;;;;5008890;28;20514;-86
2022/06/03 12:23:38;;;;;;;2.87;2.07;;;24.90;49.50;;;;;;4970925;28;20410;-86
2022/06/03 12:26:28;;;;;;;2.23;2.03;;;24.90;49.50;;;;;;4993942;28;20389;-86
2022/06/03 12:29:02;;;;;;;2.20;2.00;;;24.90;49.50;;;;;;4993746;28;20401;-86
2022/06/03 12:31:48;;;;;;;1.63;1.53;;;24.90;49.50;;;;;;4993324;28;20404;-86
2022/06/03 12:34:25;;;;;;;4.70;1.87;;;24.90;49.50;;;;;;4978535;28;20590;-84
2022/06/03 12:37:00;;;;;;;2.20;1.90;;;24.80;49.50;;;;;;4998107;28;20473;-87
2022/06/03 12:39:52;;;;;;;1.80;1.70;;;24.90;49.50;;;;;;4993955;28;20419;-86
2022/06/03 12:42:47;;;;;;;1.73;1.63;;;24.80;49.50;;;;;;4991929;28;20504;-87
2022/06/03 12:45:28;;;;;;;2.37;1.97;;;24.80;49.50;;;;;;4953843;29;20415;-88
2022/06/03 12:47:55;;;;;;;2.70;1.87;;;24.90;49.60;;;;;;4937681;29;20461;-88
2022/06/03 12:50:29;;;;;;;2.17;1.97;;;24.80;49.50;;;;;;4986949;28;20428;-87
2022/06/03 12:56:48;;;;;;;2.17;1.93;;;24.90;49.50;;;;;;4995640;28;20399;-87
2022/06/03 12:59:29;;;;;;;2.30;1.73;;;24.80;49.50;;;;;;4994282;28;20436;-87
2022/06/03 13:02:16;;;;;;;3.93;2.17;;;24.90;49.60;;;;;;4994181;28;20410;-88
2022/06/03 13:04:44;;;;;;;3.00;1.80;;;24.80;49.50;;;;;;5010702;28;20440;-88
2022/06/03 13:07:28;;;;;;;1.93;1.83;;;24.80;49.50;;;;;;5010267;28;20421;-87
2022/06/03 13:10:03;;;;;;;1.80;1.60;;;24.90;49.60;;;;;;5009552;28;20547;-87
2022/06/03 13:12:31;;;;;;;2.67;1.70;;;24.80;49.50;;;;;;5014211;28;20442;-87
2022/06/03 13:15:21;;;;;;;2.50;2.27;;;24.80;49.50;;;;;;5014454;28;20444;-87
2022/06/03 13:18:12;;;;;;;2.10;1.90;;;24.90;49.60;;;;;;4999081;28;20525;-87
2022/06/03 13:21:07;;;;;;;2.37;2.10;;;24.80;49.50;;;;;;4998521;28;20424;-87
2022/06/03 13:23:42;;;;;;;2.77;1.90;;;24.90;49.70;;;;;;4995021;28;20409;-87
2022/06/03 13:26:42;;;;;;;3.17;2.20;;;24.90;49.80;;;;;;4975183;29;20465;-87
2022/06/03 13:29:10;;;;;;;2.90;1.97;;;24.80;49.70;;;;;;4937359;29;20423;-87
2022/06/03 13:31:41;;;;;;;1.90;1.80;;;24.80;49.70;;;;;;4941134;29;20508;-87
2022/06/03 13:36:39;;;;;;;2.00;1.90;;;24.80;49.70;;;;;;4918052;29;20421;-87
2022/06/03 13:39:13;;;;;;;2.30;2.10;;;24.90;49.80;;;;;;4917484;29;20195;-87
2022/06/03 13:45:03;;;;;;;2.17;1.97;;;24.90;49.80;;;;;;4899053;29;20409;-86
2022/06/03 13:47:40;;;;;;;2.47;1.80;;;24.90;49.80;;;;;;4898830;29;20421;-86
2022/06/03 13:50:16;;;;;;;3.73;2.03;;;24.90;49.90;;;;;;4885025;29;20426;-86
2022/06/03 13:52:58;;;;;;;1.97;1.73;;;24.90;49.80;;;;;;4896613;29;20418;-87
2022/06/03 13:55:45;;;;;;;2.77;2.07;;;24.90;49.80;;;;;;4882888;29;20423;-86
2022/06/03 13:58:35;;;;;;;2.10;1.87;;;24.90;49.90;;;;;;4899389;29;20556;-87
2022/06/03 14:01:08;;;;;;;2.20;2.00;;;25.00;49.90;;;;;;4930220;29;20419;-87
2022/06/03 14:04:29;;;;;;;1.63;1.53;;;24.90;49.90;;;;;;4942241;28;20410;-88
2022/06/03 14:07:23;;;;;;;2.60;2.10;;;24.90;49.90;;;;;;4862155;29;20427;-88
2022/06/03 14:10:11;;;;;;;2.27;2.07;;;25.00;50.00;;;;;;4848631;29;20426;-88
2022/06/03 14:12:46;;;;;;;2.20;1.90;;;24.90;49.90;;;;;;4857231;29;20431;-87
2022/06/03 14:15:37;;;;;;;1.77;1.67;;;24.90;50.00;;;;;;4858239;29;20894;-88
2022/06/03 14:18:05;;;;;;;2.30;2.10;;;25.00;50.00;;;;;;4857188;29;20875;-88
2022/06/03 14:20:41;;;;;;;2.50;1.97;;;25.00;50.00;;;;;;4862293;29;20431;-88
2022/06/03 14:23:22;;;;;;;4.23;2.10;;;25.00;50.10;;;;;;4911146;29;20433;-88
2022/06/03 14:25:56;;;;;;;2.40;2.20;;;25.00;50.00;;;;;;4912961;29;20421;-88
2022/06/03 14:28:21;;;;;;;4.00;2.13;;;25.00;50.10;;;;;;4913003;29;20429;-89
2022/06/03 14:31:26;;;;;;;1.90;1.80;;;25.00;50.70;;;;;;4912017;29;20432;-88
2022/06/03 14:33:56;;;;;;;2.17;1.77;;;25.00;50.10;;;;;;4912770;29;20200;-88
2022/06/03 14:36:24;;;;;;;1.87;1.60;;;25.00;50.10;;;;;;4911673;29;20428;-88
2022/06/03 14:38:59;;;;;;;2.30;1.80;;;25.00;50.10;;;;;;4911665;29;20472;-88
2022/06/03 14:41:31;;;;;;;2.67;1.90;;;25.10;50.10;;;;;;4911770;29;20408;-88
2022/06/03 14:44:00;;;;;;;2.97;2.47;;;25.00;50.00;;;;;;4984266;28;20431;-88
2022/06/03 14:46:38;;;;;;;3.77;2.03;;;25.00;50.00;;;;;;5009128;28;20543;-88
2022/06/03 14:49:12;;;;;;;3.37;1.70;;;25.00;50.00;;;;;;5009455;28;20420;-88
2022/06/03 14:51:47;;;;;;;4.00;2.20;;;25.10;49.90;;;;;;5013744;28;20839;-88
2022/06/03 14:54:35;;;;;;;3.00;1.80;;;25.00;49.90;;;;;;5029059;28;20399;-89
2022/06/03 14:57:04;;;;;;;3.23;3.00;;;25.10;49.90;;;;;;5033633;28;20469;-88